Time;durP1;ratioP1;P1;durP2;ratioP2;P2;SDS_P1;SDS_P2;PMS_P1;PMS_P2;Temp;Humidity;BMP_temperature;BMP_pressure;BME280_temperature;BME280_humidity;BME280_pressure;Samples;Min_cycle;Max_cycle;Signal;HPM_P1;HPM_P2
2021/07/22 00:00:32;;;;;;;15.30;11.50;;;17.10;99.90;;;;;;5132851;27;20206;-84
2021/07/22 00:02:59;;;;;;;16.60;11.80;;;17.00;99.90;;;;;;5133029;27;20206;-85
2021/07/22 00:05:26;;;;;;;20.30;13.98;;;17.00;99.90;;;;;;5133196;27;20203;-85
2021/07/22 00:08:00;;;;;;;14.13;12.35;;;17.00;99.90;;;;;;5118614;27;20514;-85
2021/07/22 00:10:27;;;;;;;15.10;11.55;;;17.00;99.90;;;;;;5108111;28;20645;-85
2021/07/22 00:12:54;;;;;;;12.75;11.15;;;17.00;99.90;;;;;;5107276;27;20211;-86
2021/07/22 00:15:20;;;;;;;14.87;12.60;;;17.00;99.90;;;;;;5112257;28;20207;-84
2021/07/22 00:17:47;;;;;;;14.38;12.20;;;17.00;99.90;;;;;;5120963;27;20588;-84
2021/07/22 00:20:15;;;;;;;16.77;11.48;;;16.90;99.90;;;;;;5133453;27;20225;-86
2021/07/22 00:22:41;;;;;;;13.30;11.50;;;16.90;99.90;;;;;;5114277;27;20199;-86
2021/07/22 00:25:10;;;;;;;13.70;11.07;;;16.90;99.90;;;;;;5115311;27;20211;-86
2021/07/22 00:27:37;;;;;;;13.88;11.70;;;16.90;99.90;;;;;;5128562;27;20552;-85
2021/07/22 00:30:05;;;;;;;14.05;11.38;;;16.90;99.90;;;;;;5128508;27;20211;-85
2021/07/22 00:32:32;;;;;;;12.38;10.63;;;16.90;99.90;;;;;;5129016;28;20210;-83
2021/07/22 00:34:59;;;;;;;13.52;11.07;;;16.90;99.90;;;;;;5137855;27;20271;-85
2021/07/22 00:37:26;;;;;;;13.73;11.80;;;16.90;99.90;;;;;;5150735;27;20199;-84
2021/07/22 00:39:53;;;;;;;14.02;11.20;;;16.90;99.90;;;;;;5142425;27;20191;-84
2021/07/22 00:42:21;;;;;;;14.43;10.85;;;16.90;99.90;;;;;;5139696;27;20213;-84
2021/07/22 00:44:48;;;;;;;11.40;10.20;;;16.80;99.90;;;;;;5135204;27;20187;-85
2021/07/22 00:47:14;;;;;;;11.98;9.60;;;16.80;99.90;;;;;;5115166;28;20208;-84
2021/07/22 00:49:41;;;;;;;13.40;11.45;;;16.80;99.90;;;;;;5110850;28;20251;-84
2021/07/22 00:52:08;;;;;;;10.70;9.63;;;16.80;99.90;;;;;;5111936;28;20195;-84
2021/07/22 00:54:35;;;;;;;12.02;9.65;;;16.80;99.90;;;;;;5112240;27;20409;-86
2021/07/22 00:57:01;;;;;;;12.80;11.13;;;16.80;99.90;;;;;;5114763;28;20235;-85
2021/07/22 00:59:30;;;;;;;14.65;10.50;;;16.80;99.90;;;;;;5127380;28;20182;-85
2021/07/22 01:01:56;;;;;;;11.40;8.93;;;16.80;99.90;;;;;;5116871;27;20681;-84
2021/07/22 01:04:23;;;;;;;11.00;9.40;;;16.70;99.90;;;;;;5133943;27;20203;-85
2021/07/22 01:06:50;;;;;;;11.18;9.52;;;16.70;99.90;;;;;;5132885;27;20202;-85
2021/07/22 01:09:17;;;;;;;10.70;9.52;;;16.70;99.90;;;;;;5113178;28;20235;-85
2021/07/22 01:11:43;;;;;;;11.73;10.43;;;16.70;99.90;;;;;;5111832;28;20199;-85
2021/07/22 01:14:10;;;;;;;10.60;9.25;;;16.70;99.90;;;;;;5111256;28;20290;-85
2021/07/22 01:16:39;;;;;;;12.23;9.35;;;16.70;99.90;;;;;;5110392;28;20196;-84
2021/07/22 01:19:05;;;;;;;11.25;9.52;;;16.70;99.90;;;;;;5110953;28;20192;-83
2021/07/22 01:21:34;;;;;;;10.63;9.48;;;16.70;99.90;;;;;;5109954;28;20287;-85
2021/07/22 01:24:00;;;;;;;11.70;9.60;;;16.70;99.90;;;;;;5109758;28;20199;-85
2021/07/22 01:26:27;;;;;;;15.55;11.10;;;16.70;99.90;;;;;;5111284;28;20233;-84
2021/07/22 01:28:54;;;;;;;12.68;10.02;;;16.70;99.90;;;;;;5110133;28;20207;-85
2021/07/22 01:31:24;;;;;;;10.88;9.60;;;16.70;99.90;;;;;;5111034;28;20206;-85
2021/07/22 01:33:51;;;;;;;12.70;9.38;;;16.70;99.90;;;;;;5110459;28;20184;-86
2021/07/22 01:36:22;;;;;;;10.97;9.60;;;16.70;99.90;;;;;;5111066;28;20207;-86
2021/07/22 01:38:51;;;;;;;10.38;9.27;;;16.70;99.90;;;;;;5110274;28;20204;-85
2021/07/22 01:41:18;;;;;;;11.55;10.30;;;16.70;99.90;;;;;;5114321;28;20226;-86
2021/07/22 01:43:45;;;;;;;12.10;9.75;;;16.70;99.90;;;;;;5131058;28;20528;-86
2021/07/22 01:46:12;;;;;;;12.57;10.30;;;16.70;99.90;;;;;;5122188;28;20588;-85
2021/07/22 01:48:38;;;;;;;10.50;9.13;;;16.70;99.90;;;;;;5109279;28;20224;-84
2021/07/22 01:51:06;;;;;;;11.60;9.98;;;16.70;99.90;;;;;;5092386;28;20220;-86
2021/07/22 01:53:34;;;;;;;12.68;9.70;;;16.70;99.90;;;;;;5109953;28;20906;-85
2021/07/22 01:56:04;;;;;;;11.13;9.32;;;16.60;99.90;;;;;;5110155;28;20684;-84
2021/07/22 01:58:31;;;;;;;11.20;8.68;;;16.70;99.90;;;;;;5110440;28;20216;-85
2021/07/22 02:00:57;;;;;;;12.47;9.53;;;16.70;99.90;;;;;;5110360;28;20203;-84
2021/07/22 02:03:24;;;;;;;11.95;9.30;;;16.70;99.90;;;;;;5111301;28;20593;-85
2021/07/22 02:05:51;;;;;;;12.13;9.67;;;16.60;99.90;;;;;;5129928;28;20692;-85
2021/07/22 02:08:18;;;;;;;11.18;8.70;;;16.60;99.90;;;;;;5116715;28;20231;-84
2021/07/22 02:10:45;;;;;;;12.48;10.43;;;16.60;99.90;;;;;;5108110;28;20219;-83
2021/07/22 02:13:13;;;;;;;10.83;9.40;;;16.60;99.90;;;;;;5109393;28;20499;-84
2021/07/22 02:15:40;;;;;;;9.63;8.57;;;16.60;99.90;;;;;;5108785;28;20211;-86
2021/07/22 02:18:06;;;;;;;12.02;9.20;;;16.60;99.90;;;;;;5106369;28;20208;-85
2021/07/22 02:20:34;;;;;;;12.15;9.80;;;16.60;99.90;;;;;;5121016;28;20238;-85
2021/07/22 02:23:00;;;;;;;11.03;9.73;;;16.50;99.90;;;;;;5118977;28;20200;-85
2021/07/22 02:25:27;;;;;;;11.50;8.90;;;16.50;99.90;;;;;;5127593;28;20538;-84
2021/07/22 02:27:54;;;;;;;9.25;8.35;;;16.50;99.90;;;;;;5127343;28;20591;-85
2021/07/22 02:30:22;;;;;;;13.52;10.45;;;16.40;99.90;;;;;;5110433;28;20231;-86
2021/07/22 02:32:49;;;;;;;10.68;9.57;;;16.40;99.90;;;;;;5104871;28;20207;-85
2021/07/22 02:35:16;;;;;;;9.85;8.85;;;16.40;99.90;;;;;;5124250;27;20219;-85
2021/07/22 02:37:43;;;;;;;11.60;9.18;;;16.40;99.90;;;;;;5129546;27;20203;-84
2021/07/22 02:40:10;;;;;;;13.27;10.13;;;16.40;99.90;;;;;;5130584;27;20804;-85
2021/07/22 02:42:37;;;;;;;12.13;9.98;;;16.40;99.90;;;;;;5123978;27;20501;-86
2021/07/22 02:45:05;;;;;;;12.70;10.77;;;16.40;99.90;;;;;;5113709;28;20196;-86
2021/07/22 02:47:33;;;;;;;11.27;9.52;;;16.30;99.90;;;;;;5113286;28;20200;-86
2021/07/22 02:50:00;;;;;;;11.30;9.00;;;16.30;99.90;;;;;;5116633;27;20219;-85
2021/07/22 02:52:27;;;;;;;14.73;10.80;;;16.30;99.90;;;;;;5133766;27;20643;-85
2021/07/22 02:54:54;;;;;;;11.18;9.98;;;16.30;99.90;;;;;;5134057;27;20697;-84
2021/07/22 02:57:20;;;;;;;12.20;10.50;;;16.20;99.90;;;;;;5134138;27;20194;-84
2021/07/22 02:59:47;;;;;;;12.80;9.65;;;16.20;99.90;;;;;;5127860;27;20204;-85
2021/07/22 03:02:14;;;;;;;13.63;10.30;;;16.20;99.90;;;;;;5127704;27;20203;-85
2021/07/22 03:04:42;;;;;;;13.50;10.27;;;16.20;99.90;;;;;;5133225;27;20191;-85
2021/07/22 03:07:09;;;;;;;9.63;8.63;;;16.20;99.90;;;;;;5133687;27;20688;-85
2021/07/22 03:09:35;;;;;;;10.67;9.57;;;16.20;99.90;;;;;;5112835;27;20611;-84
2021/07/22 03:12:02;;;;;;;11.60;10.27;;;16.20;99.90;;;;;;5111139;28;20210;-85
2021/07/22 03:14:29;;;;;;;10.20;9.10;;;16.20;99.90;;;;;;5110537;28;20204;-87
2021/07/22 03:16:56;;;;;;;10.87;9.50;;;16.20;99.90;;;;;;5110722;27;20203;-86
2021/07/22 03:19:23;;;;;;;11.55;9.40;;;16.10;99.90;;;;;;5111296;28;20207;-85
2021/07/22 03:21:51;;;;;;;10.27;9.17;;;16.10;99.90;;;;;;5111435;27;20958;-85
2021/07/22 03:24:17;;;;;;;10.77;9.23;;;16.10;99.90;;;;;;5112998;28;20204;-86
2021/07/22 03:26:44;;;;;;;11.93;10.10;;;16.10;99.90;;;;;;5112587;28;20746;-84
2021/07/22 03:29:12;;;;;;;11.32;9.75;;;16.10;99.90;;;;;;5113683;28;20231;-86
2021/07/22 03:31:38;;;;;;;11.80;9.98;;;16.00;99.90;;;;;;5112612;27;20235;-87
2021/07/22 03:34:05;;;;;;;13.05;10.90;;;16.00;99.90;;;;;;5125507;27;20207;-85
2021/07/22 03:36:33;;;;;;;13.40;9.55;;;16.00;99.90;;;;;;5132606;27;20205;-84
2021/07/22 03:39:01;;;;;;;12.68;10.32;;;16.00;99.90;;;;;;5133137;27;20195;-85
2021/07/22 03:41:28;;;;;;;12.68;10.30;;;16.00;99.90;;;;;;5134626;27;20203;-86
2021/07/22 03:43:55;;;;;;;13.53;9.80;;;15.90;99.90;;;;;;5134104;27;20631;-82
2021/07/22 03:46:22;;;;;;;16.10;10.77;;;15.90;99.90;;;;;;5130461;27;20207;-82
2021/07/22 03:48:49;;;;;;;13.13;9.95;;;15.90;99.90;;;;;;5112271;28;20223;-84
2021/07/22 03:51:16;;;;;;;11.50;9.63;;;15.90;99.90;;;;;;5112926;28;20223;-84
2021/07/22 03:53:42;;;;;;;12.88;9.52;;;15.90;99.90;;;;;;5112899;27;20242;-85
2021/07/22 03:56:11;;;;;;;13.87;10.47;;;15.90;99.90;;;;;;5112681;28;20196;-85
2021/07/22 03:58:37;;;;;;;13.48;10.45;;;15.80;99.90;;;;;;5112271;28;20604;-85
2021/07/22 04:01:06;;;;;;;11.35;9.73;;;15.80;99.90;;;;;;5112947;27;20950;-84
2021/07/22 04:03:35;;;;;;;12.33;9.90;;;15.80;99.90;;;;;;5111936;28;20203;-85
2021/07/22 04:06:03;;;;;;;12.98;10.00;;;15.80;99.90;;;;;;5112392;27;20217;-85
2021/07/22 04:08:30;;;;;;;13.43;9.88;;;15.80;99.90;;;;;;5112500;28;20222;-84
2021/07/22 04:10:57;;;;;;;11.73;9.40;;;15.90;99.90;;;;;;5112211;28;20301;-87
2021/07/22 04:13:25;;;;;;;10.75;9.63;;;15.90;99.90;;;;;;5112638;27;20215;-84
2021/07/22 04:15:52;;;;;;;10.75;9.20;;;15.90;99.90;;;;;;5112399;28;20509;-86
2021/07/22 04:18:18;;;;;;;11.75;9.48;;;15.90;99.90;;;;;;5112635;28;20212;-86
2021/07/22 04:20:45;;;;;;;12.25;8.60;;;15.90;99.90;;;;;;5112434;28;20199;-85
2021/07/22 04:23:12;;;;;;;10.32;8.35;;;16.00;99.90;;;;;;5130960;27;20191;-85
2021/07/22 04:25:39;;;;;;;10.50;8.37;;;16.00;99.90;;;;;;5131829;27;20207;-85
2021/07/22 04:28:06;;;;;;;11.83;8.53;;;16.00;99.90;;;;;;5131690;27;20203;-84
2021/07/22 04:30:34;;;;;;;11.48;8.48;;;16.00;99.90;;;;;;5114084;27;20247;-83
2021/07/22 04:33:01;;;;;;;8.85;7.90;;;16.10;99.90;;;;;;5112469;28;20584;-86
2021/07/22 04:35:28;;;;;;;9.97;7.70;;;16.20;99.90;;;;;;5112050;28;20608;-85
2021/07/22 04:37:54;;;;;;;14.27;8.17;;;16.10;99.90;;;;;;5123636;27;20203;-84
2021/07/22 04:40:21;;;;;;;10.03;8.23;;;16.20;99.90;;;;;;5132940;27;20605;-85
2021/07/22 04:42:48;;;;;;;9.48;7.78;;;16.20;99.90;;;;;;5131530;27;20214;-88
2021/07/22 04:45:15;;;;;;;8.77;7.38;;;16.30;99.90;;;;;;5131448;27;20199;-84
2021/07/22 04:47:43;;;;;;;9.80;7.30;;;16.30;99.90;;;;;;5132380;27;20217;-87
2021/07/22 04:50:11;;;;;;;7.88;6.53;;;16.30;99.90;;;;;;5132999;27;20276;-87
2021/07/22 04:52:38;;;;;;;10.65;6.63;;;16.30;99.90;;;;;;5132276;27;20242;-86
2021/07/22 04:55:06;;;;;;;7.90;6.57;;;16.40;99.90;;;;;;5132568;27;20207;-86
2021/07/22 04:57:33;;;;;;;8.50;6.40;;;16.50;99.90;;;;;;5131328;27;20223;-85
2021/07/22 05:00:00;;;;;;;11.30;7.93;;;16.50;99.90;;;;;;5116984;27;20207;-85
2021/07/22 05:02:27;;;;;;;9.70;7.43;;;16.60;99.90;;;;;;5111968;28;20188;-86
2021/07/22 05:04:55;;;;;;;8.60;6.70;;;16.70;99.90;;;;;;5111696;28;20200;-85
2021/07/22 05:07:21;;;;;;;14.18;7.22;;;16.70;99.90;;;;;;5111107;28;20200;-86
2021/07/22 05:09:48;;;;;;;10.45;6.78;;;16.70;99.90;;;;;;5110964;28;20218;-84
2021/07/22 05:12:15;;;;;;;10.30;6.85;;;16.70;99.90;;;;;;5111373;28;20224;-86
2021/07/22 05:14:42;;;;;;;7.70;6.40;;;16.80;99.90;;;;;;5128763;27;20211;-85
2021/07/22 05:17:09;;;;;;;7.88;6.05;;;16.90;99.90;;;;;;5132236;27;20207;-83
2021/07/22 05:19:36;;;;;;;9.88;6.80;;;16.90;99.90;;;;;;5130964;27;20650;-85
2021/07/22 05:22:04;;;;;;;7.22;5.70;;;16.90;99.90;;;;;;5127548;27;20198;-86
2021/07/22 05:24:31;;;;;;;9.50;5.90;;;17.00;99.90;;;;;;5110886;27;20215;-84
2021/07/22 05:26:58;;;;;;;7.05;5.72;;;17.00;99.90;;;;;;5111089;28;20195;-85
2021/07/22 05:29:25;;;;;;;8.45;5.88;;;17.10;99.90;;;;;;5110869;28;20192;-84
2021/07/22 05:31:52;;;;;;;6.55;5.47;;;17.20;99.90;;;;;;5125460;28;20230;-82
2021/07/22 05:34:19;;;;;;;8.25;5.82;;;17.30;99.90;;;;;;5130952;28;20203;-84
2021/07/22 05:36:46;;;;;;;8.63;5.88;;;17.30;99.90;;;;;;5128737;28;20231;-85
2021/07/22 05:39:14;;;;;;;6.53;5.50;;;17.40;99.90;;;;;;5131079;28;20203;-86
2021/07/22 05:41:41;;;;;;;6.93;5.00;;;17.40;99.90;;;;;;5110652;28;20287;-88
2021/07/22 05:44:08;;;;;;;7.53;5.40;;;17.50;99.90;;;;;;5108854;28;20196;-85
2021/07/22 05:46:35;;;;;;;9.05;5.40;;;17.60;99.90;;;;;;5108730;28;20199;-85
2021/07/22 05:49:02;;;;;;;7.00;5.47;;;17.60;99.90;;;;;;5111597;28;20311;-86
2021/07/22 05:51:31;;;;;;;7.97;5.75;;;17.70;99.90;;;;;;5115655;28;20228;-86
2021/07/22 05:53:58;;;;;;;7.85;5.18;;;17.90;99.90;;;;;;5132992;28;20231;-89
2021/07/22 05:56:27;;;;;;;7.40;5.22;;;18.00;99.90;;;;;;5132438;28;20271;-86
2021/07/22 05:58:54;;;;;;;7.30;5.45;;;18.00;99.90;;;;;;5131732;28;20215;-86
2021/07/22 06:01:21;;;;;;;8.68;4.88;;;18.10;99.90;;;;;;5132035;28;20199;-86
2021/07/22 06:03:48;;;;;;;8.57;5.40;;;18.10;99.90;;;;;;5130515;28;20217;-84
2021/07/22 06:06:15;;;;;;;5.93;4.85;;;18.20;99.90;;;;;;5120829;28;20243;-84
2021/07/22 06:08:42;;;;;;;6.78;4.88;;;18.20;99.90;;;;;;5110863;28;20188;-84
2021/07/22 06:11:12;;;;;;;7.03;5.18;;;18.30;99.90;;;;;;5134382;27;20219;-85
2021/07/22 06:13:40;;;;;;;7.25;5.32;;;18.30;99.90;;;;;;5135579;27;20214;-84
2021/07/22 06:16:10;;;;;;;7.28;5.28;;;18.30;99.90;;;;;;5134707;27;20195;-86
2021/07/22 06:18:36;;;;;;;6.05;4.97;;;18.40;99.90;;;;;;5115776;27;20207;-87
2021/07/22 06:21:03;;;;;;;5.97;5.05;;;18.50;99.90;;;;;;5115105;27;20200;-88
2021/07/22 06:23:30;;;;;;;6.38;4.60;;;18.60;99.90;;;;;;5114328;28;20199;-85
2021/07/22 06:25:57;;;;;;;6.45;5.07;;;18.70;99.90;;;;;;5114689;28;20219;-86
2021/07/22 06:28:25;;;;;;;7.57;4.70;;;18.70;99.90;;;;;;5114187;28;20192;-88
2021/07/22 06:30:54;;;;;;;8.90;4.60;;;18.80;99.90;;;;;;5113567;28;20219;-91
2021/07/22 06:33:21;;;;;;;5.53;4.47;;;18.90;99.90;;;;;;5114201;28;20207;-88
2021/07/22 06:35:48;;;;;;;5.82;4.35;;;19.10;99.90;;;;;;5113552;28;20196;-82
2021/07/22 06:38:15;;;;;;;7.45;4.57;;;19.10;99.90;;;;;;5113474;28;20223;-86
2021/07/22 06:40:42;;;;;;;5.50;4.78;;;19.10;99.90;;;;;;5113699;28;20200;-86
2021/07/22 06:43:09;;;;;;;7.82;4.78;;;19.20;99.90;;;;;;5112921;28;20212;-83
2021/07/22 06:45:37;;;;;;;6.00;4.57;;;19.40;99.90;;;;;;5112893;27;20238;-85
2021/07/22 06:48:06;;;;;;;8.63;5.38;;;19.40;99.90;;;;;;5113802;27;20196;-86
2021/07/22 06:50:33;;;;;;;6.65;4.55;;;19.40;99.90;;;;;;5114809;27;20527;-89
2021/07/22 06:54:09;;;;;;;28.92;7.40;;;19.40;99.90;;;;;;5113898;28;20236;-88
2021/07/22 06:56:36;;;;;;;7.15;5.32;;;19.60;99.90;;;;;;5107151;28;20493;-90
2021/07/22 06:59:03;;;;;;;6.05;4.32;;;19.70;99.90;;;;;;5125242;27;20203;-93
2021/07/22 07:01:30;;;;;;;5.63;4.53;;;19.70;99.90;;;;;;5134012;27;20199;-88
2021/07/22 07:03:58;;;;;;;6.40;4.13;;;19.90;99.90;;;;;;5134006;27;20263;-85
2021/07/22 07:06:25;;;;;;;7.15;4.43;;;20.40;99.90;;;;;;5116048;27;20318;-83
2021/07/22 07:08:52;;;;;;;4.75;3.67;;;20.80;99.90;;;;;;5112312;28;20200;-86
2021/07/22 14:04:06;;;;;;;3.65;2.80;;;25.30;99.90;;;;;;5848277;22;20197;-78
2021/07/22 14:06:33;;;;;;;4.63;3.10;;;25.00;99.90;;;;;;5102353;28;20251;-81
2021/07/22 14:09:00;;;;;;;5.82;3.35;;;24.90;99.90;;;;;;5088460;28;20212;-86
2021/07/22 14:11:27;;;;;;;3.90;2.80;;;24.70;99.90;;;;;;5089256;28;20228;-86
2021/07/22 14:13:54;;;;;;;3.72;2.95;;;24.70;99.90;;;;;;5088136;28;20220;-86
2021/07/22 14:16:21;;;;;;;5.90;2.85;;;24.80;99.90;;;;;;5087340;28;20541;-85
2021/07/22 14:18:48;;;;;;;4.93;3.17;;;24.90;99.90;;;;;;5084255;22;20532;-82
2021/07/22 14:21:16;;;;;;;4.28;2.92;;;25.00;99.90;;;;;;5066888;28;20609;-83
2021/07/22 14:23:44;;;;;;;3.60;2.47;;;25.00;99.90;;;;;;5059608;28;20884;-86
2021/07/22 14:26:11;;;;;;;3.00;2.70;;;25.00;99.90;;;;;;5047824;28;20841;-86
2021/07/22 14:28:38;;;;;;;3.15;2.75;;;24.80;99.90;;;;;;5047840;28;20209;-82
2021/07/22 14:31:05;;;;;;;4.80;3.13;;;24.70;99.90;;;;;;5049044;28;20592;-83
2021/07/22 14:33:33;;;;;;;3.90;2.58;;;24.70;99.90;;;;;;5059206;28;20216;-85
2021/07/22 14:36:00;;;;;;;4.35;3.10;;;24.90;99.90;;;;;;5072519;28;20824;-87
2021/07/22 14:38:29;;;;;;;3.72;2.80;;;25.00;99.90;;;;;;5071028;28;20200;-83
2021/07/22 14:40:56;;;;;;;5.50;3.40;;;25.10;99.90;;;;;;5056559;28;20214;-91
2021/07/22 14:43:23;;;;;;;4.35;2.83;;;25.00;99.90;;;;;;5050857;28;20702;-86
2021/07/22 14:45:50;;;;;;;3.28;2.78;;;24.80;99.90;;;;;;5051170;28;20206;-83
2021/07/22 14:48:17;;;;;;;2.90;2.60;;;24.80;99.90;;;;;;5051191;28;20218;-84
2021/07/22 14:50:44;;;;;;;4.55;3.10;;;24.70;99.90;;;;;;5064552;28;20205;-83
2021/07/22 14:53:10;;;;;;;5.82;3.40;;;24.90;99.90;;;;;;5070799;28;20236;-85
2021/07/22 14:55:38;;;;;;;4.93;3.35;;;24.70;99.90;;;;;;5071147;28;20197;-85
2021/07/22 14:58:05;;;;;;;3.33;2.70;;;24.80;99.90;;;;;;5069661;28;20257;-83
2021/07/22 15:00:32;;;;;;;4.15;2.63;;;24.70;99.90;;;;;;5070379;28;20201;-89
2021/07/22 15:02:59;;;;;;;3.97;2.92;;;24.60;99.90;;;;;;5069457;28;20198;-84
2021/07/22 15:05:26;;;;;;;3.97;2.75;;;24.50;99.90;;;;;;5060761;28;20212;-85
2021/07/22 15:07:53;;;;;;;4.03;2.80;;;24.50;99.90;;;;;;5050849;28;20569;-83
2021/07/22 15:10:20;;;;;;;3.85;2.92;;;24.50;99.90;;;;;;5047554;28;20198;-80
2021/07/22 15:12:49;;;;;;;3.72;2.40;;;24.40;99.90;;;;;;5047610;28;20222;-82
2021/07/22 15:15:16;;;;;;;3.05;2.30;;;24.50;99.90;;;;;;5049962;28;20226;-84
2021/07/22 15:17:43;;;;;;;5.20;3.00;;;24.30;99.90;;;;;;5048245;28;20202;-84
2021/07/22 15:20:14;;;;;;;4.18;2.85;;;24.10;99.90;;;;;;5050090;28;20460;-81
2021/07/22 15:22:41;;;;;;;4.53;2.88;;;24.00;99.90;;;;;;5049213;28;20209;-85
2021/07/22 15:25:25;;;;;;;5.25;4.22;;;23.80;99.90;;;;;;5049589;28;20856;-81
2021/07/22 15:27:53;;;;;;;3.92;3.25;;;23.70;99.90;;;;;;5048493;28;20198;-80
2021/07/22 15:30:20;;;;;;;4.18;3.78;;;23.80;99.90;;;;;;5061082;28;20209;-83
2021/07/22 15:32:47;;;;;;;7.45;3.60;;;23.70;99.90;;;;;;5066755;28;20228;-82
2021/07/22 15:35:14;;;;;;;5.03;3.70;;;23.80;99.90;;;;;;5068218;28;20201;-80
2021/07/22 15:37:41;;;;;;;6.53;3.33;;;23.70;99.90;;;;;;5068175;28;20197;-79
2021/07/22 15:40:09;;;;;;;5.10;2.85;;;23.70;99.90;;;;;;5067602;28;20190;-82
2021/07/22 15:42:36;;;;;;;3.80;2.70;;;23.60;99.90;;;;;;5066707;28;20669;-84
2021/07/22 15:45:05;;;;;;;3.72;2.67;;;23.50;99.90;;;;;;5067603;28;20209;-82
2021/07/22 15:47:32;;;;;;;3.83;3.03;;;23.50;99.90;;;;;;5068105;28;20197;-83
2021/07/22 15:49:59;;;;;;;5.20;2.70;;;23.30;99.90;;;;;;5067888;28;20218;-84
2021/07/22 15:52:26;;;;;;;2.45;2.25;;;23.20;99.90;;;;;;5061223;28;20226;-86
2021/07/22 15:54:53;;;;;;;3.03;2.47;;;23.30;99.90;;;;;;5048974;28;20198;-87
2021/07/22 15:57:21;;;;;;;4.82;2.90;;;23.40;99.90;;;;;;5045922;28;20194;-84
2021/07/22 15:59:48;;;;;;;7.07;3.25;;;23.50;99.90;;;;;;5045775;28;20209;-90
2021/07/22 16:02:16;;;;;;;6.03;4.00;;;23.40;99.90;;;;;;5049539;28;20206;-89
2021/07/22 16:04:43;;;;;;;3.53;3.08;;;23.40;99.90;;;;;;5048680;28;20210;-84
2021/07/22 16:07:10;;;;;;;4.68;3.33;;;23.40;99.90;;;;;;5050392;28;20276;-86
2021/07/22 16:09:37;;;;;;;4.13;2.95;;;23.40;99.90;;;;;;5049359;28;20877;-89
2021/07/22 16:12:05;;;;;;;6.65;3.70;;;23.30;99.90;;;;;;5053414;28;20221;-84
2021/07/22 16:14:32;;;;;;;7.45;4.25;;;23.30;99.90;;;;;;5067446;28;20205;-89
2021/07/22 16:16:59;;;;;;;4.35;3.10;;;23.20;99.90;;;;;;5069111;28;20220;-78
2021/07/22 16:19:29;;;;;;;4.50;3.25;;;23.20;99.90;;;;;;5065309;28;20344;-81
2021/07/22 16:21:56;;;;;;;5.40;4.20;;;23.10;99.90;;;;;;5057962;28;20217;-88
2021/07/22 16:24:23;;;;;;;4.22;3.47;;;23.10;99.90;;;;;;5048581;28;20213;-80
2021/07/22 16:26:49;;;;;;;5.88;3.63;;;23.00;99.90;;;;;;5047145;28;20205;-82
2021/07/22 16:29:17;;;;;;;7.10;4.80;;;23.00;99.90;;;;;;5070268;28;20497;-89
2021/07/22 16:31:44;;;;;;;9.40;5.63;;;23.00;99.90;;;;;;5072015;28;20201;-87
2021/07/22 16:34:10;;;;;;;8.13;5.22;;;22.90;99.90;;;;;;5071428;28;20199;-86
2021/07/22 16:36:39;;;;;;;3.63;3.10;;;22.90;99.90;;;;;;5070562;28;20225;-86
2021/07/22 16:39:06;;;;;;;5.80;3.92;;;22.90;99.90;;;;;;5065069;28;20209;-89
2021/07/22 16:41:34;;;;;;;9.07;6.65;;;22.90;99.90;;;;;;5051437;28;20212;-91
2021/07/22 16:44:03;;;;;;;7.55;4.93;;;22.80;99.90;;;;;;5053759;28;20228;-89
2021/07/22 16:46:30;;;;;;;8.60;6.15;;;22.70;99.90;;;;;;5061477;28;20214;-89
2021/07/22 16:48:57;;;;;;;14.98;10.57;;;22.70;99.90;;;;;;5058394;28;20509;-83
2021/07/22 16:51:23;;;;;;;8.60;4.18;;;22.50;99.90;;;;;;5055246;28;20201;-85
2021/07/22 16:53:52;;;;;;;6.03;4.10;;;22.50;99.90;;;;;;5050925;28;20228;-83
2021/07/22 16:56:18;;;;;;;6.35;4.53;;;22.40;99.90;;;;;;5049080;28;20217;-84
2021/07/22 16:58:45;;;;;;;6.20;4.40;;;22.40;99.90;;;;;;5047650;28;20198;-80
2021/07/22 17:01:13;;;;;;;7.30;4.50;;;22.40;99.90;;;;;;5046971;28;20201;-87
2021/07/22 17:03:40;;;;;;;6.18;4.50;;;22.30;99.90;;;;;;5046368;28;20201;-86
2021/07/22 17:06:07;;;;;;;6.38;4.88;;;22.20;99.90;;;;;;5046482;28;20308;-83
2021/07/22 17:08:33;;;;;;;8.45;4.50;;;22.10;99.90;;;;;;5045483;28;20210;-82
2021/07/22 17:11:04;;;;;;;5.30;4.00;;;22.10;99.90;;;;;;5046458;28;20216;-80
2021/07/22 17:13:31;;;;;;;8.02;4.97;;;22.10;99.90;;;;;;5052158;28;20221;-88
2021/07/22 17:16:00;;;;;;;6.97;4.63;;;22.10;99.90;;;;;;5069036;28;20209;-84
2021/07/22 17:18:27;;;;;;;6.95;4.63;;;22.20;99.90;;;;;;5066903;28;20237;-87
2021/07/22 17:20:54;;;;;;;7.13;3.92;;;22.10;99.90;;;;;;5068880;28;20185;-86
2021/07/22 17:23:22;;;;;;;6.15;4.18;;;22.10;99.90;;;;;;5071087;28;20200;-90
2021/07/22 17:25:49;;;;;;;8.90;4.65;;;22.10;99.90;;;;;;5036493;28;20223;-92
2021/07/22 17:28:18;;;;;;;7.53;3.80;;;22.20;99.90;;;;;;5055355;28;20201;-88
2021/07/22 17:30:45;;;;;;;5.50;4.20;;;22.00;99.90;;;;;;5051502;28;20751;-87
2021/07/22 17:33:12;;;;;;;7.40;4.20;;;22.00;99.90;;;;;;5071231;28;20609;-83
2021/07/22 17:35:40;;;;;;;5.13;3.97;;;21.90;99.90;;;;;;5068959;28;20206;-87
2021/07/22 17:38:06;;;;;;;6.78;4.88;;;22.00;99.90;;;;;;5056838;28;20202;-91
2021/07/22 17:40:34;;;;;;;5.45;4.18;;;21.90;99.90;;;;;;5047462;28;20207;-83
2021/07/22 17:43:01;;;;;;;6.53;4.30;;;21.80;99.90;;;;;;5047787;28;20202;-88
2021/07/22 17:45:29;;;;;;;4.20;3.75;;;21.70;99.90;;;;;;5050804;28;20198;-83
2021/07/22 17:47:57;;;;;;;8.13;4.45;;;21.70;99.90;;;;;;5048387;28;20570;-84
2021/07/22 17:50:24;;;;;;;9.10;4.53;;;21.60;99.90;;;;;;5048925;28;20599;-85
2021/07/22 17:52:51;;;;;;;5.50;4.15;;;21.60;99.90;;;;;;5047182;28;20307;-87
2021/07/22 17:55:17;;;;;;;7.43;4.85;;;21.60;99.90;;;;;;5048250;28;20202;-85
2021/07/22 21:48:28;;;;;;;7.65;6.20;;;16.70;99.90;;;;;;5046415;28;20234;-89
2021/07/22 21:50:55;;;;;;;9.70;6.65;;;16.70;99.90;;;;;;5034095;28;20202;-83
2021/07/22 21:53:22;;;;;;;11.25;6.63;;;16.60;99.90;;;;;;5029767;28;20226;-86
2021/07/22 21:55:49;;;;;;;8.95;6.10;;;16.60;99.90;;;;;;5030079;28;20206;-87
2021/07/22 21:58:16;;;;;;;9.40;5.95;;;16.60;99.90;;;;;;5038949;28;20304;-85
2021/07/22 22:00:44;;;;;;;8.55;6.18;;;16.50;99.90;;;;;;5049653;28;20198;-83
2021/07/22 22:03:11;;;;;;;10.70;6.60;;;16.50;99.90;;;;;;5049302;28;20204;-87
2021/07/22 22:05:39;;;;;;;9.07;6.60;;;16.50;99.90;;;;;;5029535;28;20210;-85
2021/07/22 22:08:06;;;;;;;9.55;6.82;;;16.40;99.90;;;;;;5029975;28;20211;-86
2021/07/22 22:10:33;;;;;;;11.75;7.35;;;16.40;99.90;;;;;;5031734;28;20211;-85
2021/07/22 22:13:00;;;;;;;10.60;7.07;;;16.40;99.90;;;;;;5037249;28;20223;-86
2021/07/22 22:15:27;;;;;;;10.15;7.30;;;16.30;99.90;;;;;;5033398;28;20226;-88
2021/07/22 22:17:54;;;;;;;10.95;7.38;;;16.30;99.90;;;;;;5031034;28;20203;-88
2021/07/22 22:20:21;;;;;;;12.40;7.35;;;16.30;99.90;;;;;;5041516;28;20198;-86
2021/07/22 22:22:49;;;;;;;9.43;7.13;;;16.30;99.90;;;;;;5050494;28;20579;-88
2021/07/22 22:25:16;;;;;;;12.65;7.65;;;16.30;99.90;;;;;;5050138;28;20202;-87
2021/07/22 22:27:43;;;;;;;10.45;7.57;;;16.30;99.90;;;;;;5050791;28;20206;-85
2021/07/22 22:30:10;;;;;;;10.68;7.93;;;16.20;99.90;;;;;;5050490;28;20202;-84
2021/07/22 22:32:37;;;;;;;9.90;6.88;;;16.20;99.90;;;;;;5039693;28;20210;-83
2021/07/22 22:35:05;;;;;;;9.20;5.82;;;16.20;99.90;;;;;;5031408;28;20571;-87
2021/07/22 22:37:32;;;;;;;10.27;6.78;;;16.20;99.90;;;;;;5032990;28;20211;-88
2021/07/22 22:40:00;;;;;;;10.68;7.00;;;16.20;99.90;;;;;;5032098;28;20206;-86
2021/07/22 22:42:27;;;;;;;10.80;6.90;;;16.20;99.90;;;;;;5031589;28;20218;-87
2021/07/22 22:44:54;;;;;;;10.85;6.75;;;16.20;99.90;;;;;;5029809;28;20221;-88
2021/07/22 22:47:22;;;;;;;10.52;6.60;;;16.20;99.90;;;;;;5027787;28;20288;-84
2021/07/22 22:49:50;;;;;;;10.75;7.25;;;16.10;99.90;;;;;;5063069;28;20322;-87
2021/07/22 22:52:17;;;;;;;8.93;6.75;;;16.10;99.90;;;;;;5078870;28;20197;-89
2021/07/22 22:54:44;;;;;;;8.43;6.25;;;16.10;99.90;;;;;;5067108;28;20222;-86
2021/07/22 22:57:12;;;;;;;8.40;6.30;;;16.10;99.90;;;;;;5063886;28;20210;-87
2021/07/22 22:59:39;;;;;;;7.60;6.37;;;16.00;99.90;;;;;;5055776;28;20201;-86
2021/07/22 23:02:08;;;;;;;7.45;6.13;;;16.00;99.90;;;;;;5055662;28;20229;-89
2021/07/22 23:04:35;;;;;;;12.10;6.70;;;16.00;99.90;;;;;;5044564;28;20660;-86
2021/07/22 23:07:02;;;;;;;8.02;6.55;;;16.00;99.90;;;;;;5031053;28;20239;-87
2021/07/22 23:09:28;;;;;;;8.70;6.40;;;16.00;99.90;;;;;;5031179;28;20218;-87
2021/07/22 23:11:56;;;;;;;10.85;7.95;;;15.90;99.90;;;;;;5031216;28;20211;-89
2021/07/22 23:14:24;;;;;;;7.07;6.10;;;15.90;99.90;;;;;;5031389;28;20231;-87
2021/07/22 23:16:51;;;;;;;7.87;5.80;;;15.90;99.90;;;;;;5030083;28;20194;-87
2021/07/22 23:19:17;;;;;;;9.27;6.53;;;15.90;99.90;;;;;;5030775;28;20279;-90
2021/07/22 23:21:44;;;;;;;7.85;5.93;;;15.90;99.90;;;;;;5030172;28;20207;-88
2021/07/22 23:24:11;;;;;;;9.37;7.10;;;15.80;99.90;;;;;;5031408;28;20211;-88